sensor_id;sensor_type;location;lat;lon;timestamp;P1;durP1;ratioP1;P2;durP2;ratioP2
82744;SDS011;72484;50.004;14.356;2024-01-30T00:00:36;62.70;;;51.00;;
82744;SDS011;72484;50.004;14.356;2024-01-30T00:04:14;58.20;;;44.10;;
82744;SDS011;72484;50.004;14.356;2024-01-30T00:07:52;65.40;;;41.00;;
82744;SDS011;72484;50.004;14.356;2024-01-30T00:11:12;58.00;;;47.00;;
82744;SDS011;72484;50.004;14.356;2024-01-30T00:15:10;65.40;;;39.50;;
82744;SDS011;72484;50.004;14.356;2024-01-30T00:19:26;74.50;;;46.60;;
82744;SDS011;72484;50.004;14.356;2024-01-30T00:23:04;64.10;;;33.90;;
82744;SDS011;72484;50.004;14.356;2024-01-30T00:26:24;99.90;;;36.60;;
82744;SDS011;72484;50.004;14.356;2024-01-30T00:30:22;54.50;;;35.40;;
82744;SDS011;72484;50.004;14.356;2024-01-30T00:34:38;93.70;;;29.80;;
82744;SDS011;72484;50.004;14.356;2024-01-30T00:38:16;123.60;;;34.80;;
82744;SDS011;72484;50.004;14.356;2024-01-30T00:41:54;162.00;;;29.40;;
82744;SDS011;72484;50.004;14.356;2024-01-30T00:45:15;167.20;;;34.00;;
82744;SDS011;72484;50.004;14.356;2024-01-30T00:49:30;106.90;;;27.80;;
82744;SDS011;72484;50.004;14.356;2024-01-30T00:53:08;237.20;;;29.20;;
82744;SDS011;72484;50.004;14.356;2024-01-30T00:56:46;99.30;;;28.60;;
82744;SDS011;72484;50.004;14.356;2024-01-30T01:00:24;186.80;;;24.60;;
82744;SDS011;72484;50.004;14.356;2024-01-30T01:03:43;170.70;;;27.00;;
82744;SDS011;72484;50.004;14.356;2024-01-30T01:07:43;151.20;;;27.10;;
82744;SDS011;72484;50.004;14.356;2024-01-30T01:12:00;112.80;;;30.20;;
82744;SDS011;72484;50.004;14.356;2024-01-30T01:15:38;116.40;;;25.50;;
82744;SDS011;72484;50.004;14.356;2024-01-30T01:19:15;143.60;;;35.90;;
82744;SDS011;72484;50.004;14.356;2024-01-30T01:22:35;108.80;;;28.90;;
82744;SDS011;72484;50.004;14.356;2024-01-30T01:26:35;119.70;;;30.70;;
82744;SDS011;72484;50.004;14.356;2024-01-30T01:30:51;64.60;;;31.80;;
82744;SDS011;72484;50.004;14.356;2024-01-30T01:34:29;108.00;;;27.10;;
82744;SDS011;72484;50.004;14.356;2024-01-30T01:38:06;108.80;;;32.00;;
82744;SDS011;72484;50.004;14.356;2024-01-30T01:41:44;118.80;;;32.10;;
82744;SDS011;72484;50.004;14.356;2024-01-30T01:45:22;148.40;;;39.10;;
82744;SDS011;72484;50.004;14.356;2024-01-30T01:49:00;47.40;;;30.10;;
82744;SDS011;72484;50.004;14.356;2024-01-30T01:52:37;104.30;;;34.60;;
82744;SDS011;72484;50.004;14.356;2024-01-30T01:56:15;86.80;;;36.80;;
82744;SDS011;72484;50.004;14.356;2024-01-30T01:59:53;94.70;;;27.70;;
82744;SDS011;72484;50.004;14.356;2024-01-30T02:03:13;142.70;;;36.00;;
82744;SDS011;72484;50.004;14.356;2024-01-30T02:07:14;66.30;;;31.90;;
82744;SDS011;72484;50.004;14.356;2024-01-30T02:11:31;113.00;;;36.80;;
82744;SDS011;72484;50.004;14.356;2024-01-30T02:15:12;90.90;;;37.70;;
82744;SDS011;72484;50.004;14.356;2024-01-30T02:18:46;84.00;;;31.70;;
82744;SDS011;72484;50.004;14.356;2024-01-30T02:22:06;87.60;;;37.50;;
82744;SDS011;72484;50.004;14.356;2024-01-30T02:26:23;80.00;;;26.30;;
82744;SDS011;72484;50.004;14.356;2024-01-30T02:29:43;100.70;;;33.50;;
82744;SDS011;72484;50.004;14.356;2024-01-30T02:34:00;90.20;;;29.60;;
82744;SDS011;72484;50.004;14.356;2024-01-30T02:37:19;108.10;;;34.80;;
82744;SDS011;72484;50.004;14.356;2024-01-30T02:41:18;66.30;;;29.20;;
82744;SDS011;72484;50.004;14.356;2024-01-30T02:45:16;100.60;;;36.10;;
82744;SDS011;72484;50.004;14.356;2024-01-30T02:49:32;66.40;;;30.10;;
82744;SDS011;72484;50.004;14.356;2024-01-30T02:53:10;82.00;;;38.30;;
82744;SDS011;72484;50.004;14.356;2024-01-30T02:56:48;57.80;;;28.30;;
82744;SDS011;72484;50.004;14.356;2024-01-30T03:00:09;65.50;;;29.20;;
82744;SDS011;72484;50.004;14.356;2024-01-30T03:04:26;53.20;;;27.50;;
82744;SDS011;72484;50.004;14.356;2024-01-30T03:08:05;82.60;;;26.30;;
82744;SDS011;72484;50.004;14.356;2024-01-30T03:11:23;107.60;;;35.40;;
82744;SDS011;72484;50.004;14.356;2024-01-30T03:15:21;75.00;;;27.70;;
82744;SDS011;72484;50.004;14.356;2024-01-30T03:19:37;95.10;;;36.90;;
82744;SDS011;72484;50.004;14.356;2024-01-30T03:23:15;88.80;;;32.80;;
82744;SDS011;72484;50.004;14.356;2024-01-30T03:26:35;100.80;;;41.50;;
82744;SDS011;72484;50.004;14.356;2024-01-30T03:30:51;71.00;;;38.50;;
82744;SDS011;72484;50.004;14.356;2024-01-30T03:34:10;96.80;;;44.60;;
82744;SDS011;72484;50.004;14.356;2024-01-30T03:38:09;77.10;;;38.40;;
82744;SDS011;72484;50.004;14.356;2024-01-30T03:42:25;121.60;;;45.20;;
82744;SDS011;72484;50.004;14.356;2024-01-30T03:45:44;71.70;;;37.70;;
82744;SDS011;72484;50.004;14.356;2024-01-30T03:49:42;143.50;;;41.90;;
82744;SDS011;72484;50.004;14.356;2024-01-30T03:53:42;80.80;;;41.70;;
82744;SDS011;72484;50.004;14.356;2024-01-30T03:57:59;166.10;;;40.60;;
82744;SDS011;72484;50.004;14.356;2024-01-30T04:01:19;129.50;;;42.80;;
82744;SDS011;72484;50.004;14.356;2024-01-30T04:05:17;111.80;;;37.30;;
82744;SDS011;72484;50.004;14.356;2024-01-30T04:09:16;179.90;;;45.30;;
82744;SDS011;72484;50.004;14.356;2024-01-30T04:13:32;135.90;;;43.30;;
82744;SDS011;72484;50.004;14.356;2024-01-30T04:16:52;190.30;;;47.70;;
82744;SDS011;72484;50.004;14.356;2024-01-30T04:21:08;141.20;;;44.00;;
82744;SDS011;72484;50.004;14.356;2024-01-30T04:24:28;174.90;;;46.70;;
82744;SDS011;72484;50.004;14.356;2024-01-30T04:28:27;121.80;;;42.40;;
82744;SDS011;72484;50.004;14.356;2024-01-30T04:32:25;118.10;;;47.20;;
82744;SDS011;72484;50.004;14.356;2024-01-30T04:36:23;173.10;;;41.60;;
82744;SDS011;72484;50.004;14.356;2024-01-30T04:40:40;172.60;;;46.80;;
82744;SDS011;72484;50.004;14.356;2024-01-30T04:44:17;74.40;;;43.40;;
82744;SDS011;72484;50.004;14.356;2024-01-30T04:47:55;151.50;;;47.70;;
82744;SDS011;72484;50.004;14.356;2024-01-30T04:51:33;89.80;;;50.60;;
82744;SDS011;72484;50.004;14.356;2024-01-30T04:54:53;91.70;;;50.10;;
82744;SDS011;72484;50.004;14.356;2024-01-30T04:59:09;100.10;;;50.50;;
82744;SDS011;72484;50.004;14.356;2024-01-30T05:02:29;64.40;;;49.30;;
82744;SDS011;72484;50.004;14.356;2024-01-30T05:06:45;74.90;;;50.80;;
82744;SDS011;72484;50.004;14.356;2024-01-30T05:10:22;54.70;;;48.80;;
82744;SDS011;72484;50.004;14.356;2024-01-30T05:14:00;52.60;;;47.00;;
82744;SDS011;72484;50.004;14.356;2024-01-30T05:17:38;55.20;;;48.00;;
82744;SDS011;72484;50.004;14.356;2024-01-30T05:21:15;60.00;;;49.20;;
82744;SDS011;72484;50.004;14.356;2024-01-30T05:24:53;57.60;;;48.50;;
82744;SDS011;72484;50.004;14.356;2024-01-30T05:28:13;54.60;;;49.40;;
82744;SDS011;72484;50.004;14.356;2024-01-30T05:32:30;59.20;;;52.40;;
82744;SDS011;72484;50.004;14.356;2024-01-30T05:35:50;56.10;;;49.80;;
82744;SDS011;72484;50.004;14.356;2024-01-30T05:40:08;56.40;;;51.00;;
82744;SDS011;72484;50.004;14.356;2024-01-30T05:43:45;58.70;;;52.30;;
82744;SDS011;72484;50.004;14.356;2024-01-30T05:47:05;58.20;;;51.90;;
82744;SDS011;72484;50.004;14.356;2024-01-30T05:51:03;66.80;;;55.40;;
82744;SDS011;72484;50.004;14.356;2024-01-30T05:55:04;57.90;;;50.80;;
82744;SDS011;72484;50.004;14.356;2024-01-30T05:59:02;64.00;;;51.90;;
82744;SDS011;72484;50.004;14.356;2024-01-30T06:03:18;57.30;;;51.00;;
82744;SDS011;72484;50.004;14.356;2024-01-30T06:06:56;79.70;;;50.70;;
82744;SDS011;72484;50.004;14.356;2024-01-30T06:10:33;97.80;;;50.40;;
82744;SDS011;72484;50.004;14.356;2024-01-30T06:14:11;64.60;;;48.00;;
82744;SDS011;72484;50.004;14.356;2024-01-30T06:17:31;73.90;;;50.60;;
82744;SDS011;72484;50.004;14.356;2024-01-30T06:21:31;63.30;;;49.60;;
82744;SDS011;72484;50.004;14.356;2024-01-30T06:25:49;61.10;;;48.30;;
82744;SDS011;72484;50.004;14.356;2024-01-30T06:29:09;69.90;;;50.50;;
82744;SDS011;72484;50.004;14.356;2024-01-30T06:33:07;60.30;;;51.40;;
82744;SDS011;72484;50.004;14.356;2024-01-30T06:37:25;74.80;;;52.20;;
82744;SDS011;72484;50.004;14.356;2024-01-30T06:40:45;67.50;;;50.20;;
82744;SDS011;72484;50.004;14.356;2024-01-30T06:44:44;83.60;;;51.70;;
82744;SDS011;72484;50.004;14.356;2024-01-30T06:48:59;91.50;;;54.50;;
82744;SDS011;72484;50.004;14.356;2024-01-30T06:52:37;67.60;;;54.00;;
82744;SDS011;72484;50.004;14.356;2024-01-30T06:56:15;88.00;;;56.00;;
82744;SDS011;72484;50.004;14.356;2024-01-30T06:59:53;68.70;;;57.00;;
82744;SDS011;72484;50.004;14.356;2024-01-30T07:03:30;81.40;;;56.20;;
82744;SDS011;72484;50.004;14.356;2024-01-30T07:06:50;103.60;;;55.00;;
82744;SDS011;72484;50.004;14.356;2024-01-30T07:11:07;78.20;;;54.60;;
82744;SDS011;72484;50.004;14.356;2024-01-30T07:14:44;90.70;;;54.70;;
82744;SDS011;72484;50.004;14.356;2024-01-30T07:18:22;91.80;;;53.10;;
82744;SDS011;72484;50.004;14.356;2024-01-30T07:22:00;80.90;;;55.20;;
82744;SDS011;72484;50.004;14.356;2024-01-30T07:25:38;86.90;;;54.50;;
82744;SDS011;72484;50.004;14.356;2024-01-30T07:28:57;71.40;;;57.10;;
82744;SDS011;72484;50.004;14.356;2024-01-30T07:33:13;89.20;;;65.30;;
82744;SDS011;72484;50.004;14.356;2024-01-30T07:36:33;77.20;;;66.50;;
82744;SDS011;72484;50.004;14.356;2024-01-30T07:40:31;83.50;;;62.30;;
82744;SDS011;72484;50.004;14.356;2024-01-30T07:44:29;71.00;;;59.80;;
82744;SDS011;72484;50.004;14.356;2024-01-30T07:48:27;79.20;;;58.80;;
82744;SDS011;72484;50.004;14.356;2024-01-30T07:52:44;71.10;;;57.10;;
82744;SDS011;72484;50.004;14.356;2024-01-30T07:56:05;65.70;;;58.10;;
82744;SDS011;72484;50.004;14.356;2024-01-30T08:00:04;74.80;;;51.00;;
82744;SDS011;72484;50.004;14.356;2024-01-30T08:04:22;68.30;;;54.40;;
82744;SDS011;72484;50.004;14.356;2024-01-30T08:07:42;65.70;;;52.00;;
82744;SDS011;72484;50.004;14.356;2024-01-30T08:11:59;75.10;;;59.80;;
82744;SDS011;72484;50.004;14.356;2024-01-30T08:15:19;72.30;;;54.00;;
82744;SDS011;72484;50.004;14.356;2024-01-30T08:19:35;76.90;;;59.30;;
82744;SDS011;72484;50.004;14.356;2024-01-30T08:22:54;76.40;;;58.90;;
82744;SDS011;72484;50.004;14.356;2024-01-30T08:26:53;69.10;;;50.30;;
82744;SDS011;72484;50.004;14.356;2024-01-30T08:31:10;68.30;;;50.60;;
82744;SDS011;72484;50.004;14.356;2024-01-30T08:34:47;61.80;;;44.00;;
82744;SDS011;72484;50.004;14.356;2024-01-30T08:38:25;65.30;;;44.30;;
82744;SDS011;72484;50.004;14.356;2024-01-30T08:41:45;65.10;;;44.40;;
82744;SDS011;72484;50.004;14.356;2024-01-30T08:46:01;61.60;;;38.60;;
82744;SDS011;72484;50.004;14.356;2024-01-30T08:49:39;63.80;;;40.20;;
82744;SDS011;72484;50.004;14.356;2024-01-30T08:53:16;60.30;;;38.60;;
82744;SDS011;72484;50.004;14.356;2024-01-30T08:56:36;63.70;;;40.10;;
82744;SDS011;72484;50.004;14.356;2024-01-30T09:00:52;62.50;;;38.60;;
82744;SDS011;72484;50.004;14.356;2024-01-30T09:04:12;59.40;;;36.50;;
82744;SDS011;72484;50.004;14.356;2024-01-30T09:08:11;57.70;;;34.60;;
82744;SDS011;72484;50.004;14.356;2024-01-30T09:12:27;60.10;;;36.40;;
82744;SDS011;72484;50.004;14.356;2024-01-30T09:15:46;64.80;;;37.30;;
82744;SDS011;72484;50.004;14.356;2024-01-30T09:19:45;57.80;;;34.40;;
82744;SDS011;72484;50.004;14.356;2024-01-30T09:24:04;52.90;;;31.20;;
82744;SDS011;72484;50.004;14.356;2024-01-30T09:27:39;54.60;;;33.20;;
82744;SDS011;72484;50.004;14.356;2024-01-30T09:31:16;55.40;;;32.50;;
82744;SDS011;72484;50.004;14.356;2024-01-30T09:34:36;50.60;;;31.30;;
82744;SDS011;72484;50.004;14.356;2024-01-30T09:38:34;54.30;;;33.90;;
82744;SDS011;72484;50.004;14.356;2024-01-30T09:42:34;50.70;;;32.30;;
82744;SDS011;72484;50.004;14.356;2024-01-30T09:46:51;47.20;;;31.10;;
82744;SDS011;72484;50.004;14.356;2024-01-30T09:50:28;44.50;;;29.70;;
82744;SDS011;72484;50.004;14.356;2024-01-30T09:54:07;41.80;;;28.90;;
82744;SDS011;72484;50.004;14.356;2024-01-30T09:57:44;46.00;;;30.90;;
82744;SDS011;72484;50.004;14.356;2024-01-30T10:01:04;43.90;;;29.00;;
82744;SDS011;72484;50.004;14.356;2024-01-30T10:05:03;42.40;;;29.30;;
82744;SDS011;72484;50.004;14.356;2024-01-30T10:09:02;44.80;;;30.60;;
82744;SDS011;72484;50.004;14.356;2024-01-30T10:13:18;42.70;;;29.50;;
82744;SDS011;72484;50.004;14.356;2024-01-30T10:16:38;47.50;;;31.60;;
82744;SDS011;72484;50.004;14.356;2024-01-30T10:20:55;47.50;;;31.10;;
82744;SDS011;72484;50.004;14.356;2024-01-30T10:24:33;46.80;;;31.40;;
82744;SDS011;72484;50.004;14.356;2024-01-30T10:27:55;44.50;;;30.00;;
82744;SDS011;72484;50.004;14.356;2024-01-30T10:32:12;45.50;;;30.30;;
82744;SDS011;72484;50.004;14.356;2024-01-30T10:35:49;42.30;;;28.40;;
82744;SDS011;72484;50.004;14.356;2024-01-30T10:39:29;39.10;;;27.40;;
82744;SDS011;72484;50.004;14.356;2024-01-30T10:42:47;40.30;;;27.10;;
82744;SDS011;72484;50.004;14.356;2024-01-30T10:47:09;39.30;;;27.50;;
82744;SDS011;72484;50.004;14.356;2024-01-30T10:50:45;39.40;;;26.90;;
82744;SDS011;72484;50.004;14.356;2024-01-30T10:54:05;37.10;;;25.90;;
82744;SDS011;72484;50.004;14.356;2024-01-30T10:58:05;37.30;;;26.40;;
82744;SDS011;72484;50.004;14.356;2024-01-30T11:02:23;37.60;;;25.90;;
82744;SDS011;72484;50.004;14.356;2024-01-30T11:05:43;40.70;;;27.40;;
82744;SDS011;72484;50.004;14.356;2024-01-30T11:10:03;40.70;;;26.50;;
82744;SDS011;72484;50.004;14.356;2024-01-30T11:13:40;39.20;;;25.50;;
82744;SDS011;72484;50.004;14.356;2024-01-30T11:17:18;38.80;;;26.20;;
82744;SDS011;72484;50.004;14.356;2024-01-30T11:20:38;38.40;;;26.50;;
82744;SDS011;72484;50.004;14.356;2024-01-30T11:24:43;39.60;;;26.60;;
82744;SDS011;72484;50.004;14.356;2024-01-30T11:29:03;36.50;;;25.60;;
82744;SDS011;72484;50.004;14.356;2024-01-30T11:32:23;39.00;;;27.40;;
82744;SDS011;72484;50.004;14.356;2024-01-30T11:36:39;35.80;;;25.80;;
82744;SDS011;72484;50.004;14.356;2024-01-30T11:39:59;38.60;;;25.80;;
82744;SDS011;72484;50.004;14.356;2024-01-30T11:43:59;38.90;;;26.00;;
82744;SDS011;72484;50.004;14.356;2024-01-30T11:47:59;37.00;;;26.00;;
82744;SDS011;72484;50.004;14.356;2024-01-30T11:51:58;38.10;;;26.30;;
82744;SDS011;72484;50.004;14.356;2024-01-30T11:56:14;36.80;;;26.00;;
82744;SDS011;72484;50.004;14.356;2024-01-30T11:59:52;38.70;;;26.10;;
82744;SDS011;72484;50.004;14.356;2024-01-30T12:03:30;40.40;;;27.20;;
82744;SDS011;72484;50.004;14.356;2024-01-30T12:06:52;37.80;;;25.40;;
82744;SDS011;72484;50.004;14.356;2024-01-30T12:10:56;38.00;;;25.70;;
82744;SDS011;72484;50.004;14.356;2024-01-30T12:15:14;35.00;;;24.90;;
82744;SDS011;72484;50.004;14.356;2024-01-30T12:18:34;35.60;;;24.70;;
82744;SDS011;72484;50.004;14.356;2024-01-30T12:22:50;34.00;;;23.90;;
82744;SDS011;72484;50.004;14.356;2024-01-30T12:26:10;35.00;;;25.20;;
82744;SDS011;72484;50.004;14.356;2024-01-30T12:30:27;35.80;;;24.40;;
82744;SDS011;72484;50.004;14.356;2024-01-30T12:34:04;34.30;;;24.20;;
82744;SDS011;72484;50.004;14.356;2024-01-30T12:37:42;35.40;;;25.20;;
82744;SDS011;72484;50.004;14.356;2024-01-30T12:41:01;34.50;;;24.30;;
82744;SDS011;72484;50.004;14.356;2024-01-30T12:45:00;35.30;;;24.90;;
82744;SDS011;72484;50.004;14.356;2024-01-30T12:49:16;33.60;;;23.80;;
82744;SDS011;72484;50.004;14.356;2024-01-30T12:52:54;35.80;;;25.20;;
82744;SDS011;72484;50.004;14.356;2024-01-30T12:56:32;32.70;;;23.30;;
82744;SDS011;72484;50.004;14.356;2024-01-30T12:59:52;37.30;;;26.80;;
82744;SDS011;72484;50.004;14.356;2024-01-30T13:03:50;34.60;;;23.90;;
82744;SDS011;72484;50.004;14.356;2024-01-30T13:07:48;32.20;;;22.40;;
82744;SDS011;72484;50.004;14.356;2024-01-30T13:12:06;33.20;;;23.00;;
82744;SDS011;72484;50.004;14.356;2024-01-30T13:15:44;32.10;;;23.00;;
82744;SDS011;72484;50.004;14.356;2024-01-30T13:19:21;32.60;;;22.40;;
82744;SDS011;72484;50.004;14.356;2024-01-30T13:22:59;33.10;;;22.80;;
82744;SDS011;72484;50.004;14.356;2024-01-30T13:26:19;33.70;;;23.80;;
82744;SDS011;72484;50.004;14.356;2024-01-30T13:30:35;29.90;;;21.90;;
82744;SDS011;72484;50.004;14.356;2024-01-30T13:33:55;33.80;;;23.00;;
82744;SDS011;72484;50.004;14.356;2024-01-30T13:38:12;31.70;;;22.10;;
82744;SDS011;72484;50.004;14.356;2024-01-30T13:41:31;32.10;;;23.40;;
82744;SDS011;72484;50.004;14.356;2024-01-30T13:45:47;32.90;;;22.90;;
82744;SDS011;72484;50.004;14.356;2024-01-30T13:49:07;33.90;;;23.70;;
82744;SDS011;72484;50.004;14.356;2024-01-30T13:53:06;32.30;;;22.00;;
82744;SDS011;72484;50.004;14.356;2024-01-30T13:57:22;32.80;;;22.40;;
82744;SDS011;72484;50.004;14.356;2024-01-30T14:00:59;32.90;;;22.70;;
82744;SDS011;72484;50.004;14.356;2024-01-30T14:04:37;32.50;;;22.90;;
82744;SDS011;72484;50.004;14.356;2024-01-30T14:07:57;32.30;;;23.70;;
82744;SDS011;72484;50.004;14.356;2024-01-30T14:12:14;32.00;;;22.10;;
82744;SDS011;72484;50.004;14.356;2024-01-30T14:15:33;30.70;;;21.60;;
82744;SDS011;72484;50.004;14.356;2024-01-30T14:19:32;33.60;;;23.20;;
82744;SDS011;72484;50.004;14.356;2024-01-30T14:23:30;32.50;;;23.20;;
82744;SDS011;72484;50.004;14.356;2024-01-30T14:27:46;33.20;;;22.80;;
82744;SDS011;72484;50.004;14.356;2024-01-30T14:31:24;32.00;;;22.90;;
82744;SDS011;72484;50.004;14.356;2024-01-30T14:34:44;34.20;;;23.80;;
82744;SDS011;72484;50.004;14.356;2024-01-30T14:39:00;32.90;;;23.10;;
82744;SDS011;72484;50.004;14.356;2024-01-30T14:42:20;34.70;;;23.60;;
82744;SDS011;72484;50.004;14.356;2024-01-30T14:46:36;34.90;;;24.50;;
82744;SDS011;72484;50.004;14.356;2024-01-30T14:50:13;33.10;;;23.90;;
82744;SDS011;72484;50.004;14.356;2024-01-30T14:53:51;33.10;;;24.00;;
82744;SDS011;72484;50.004;14.356;2024-01-30T14:57:11;33.60;;;23.00;;
82744;SDS011;72484;50.004;14.356;2024-01-30T15:01:28;32.10;;;22.70;;
82744;SDS011;72484;50.004;14.356;2024-01-30T15:05:06;34.10;;;23.30;;
82744;SDS011;72484;50.004;14.356;2024-01-30T15:08:43;33.40;;;22.90;;
82744;SDS011;72484;50.004;14.356;2024-01-30T15:12:04;32.20;;;22.70;;
82744;SDS011;72484;50.004;14.356;2024-01-30T15:16:03;30.50;;;22.20;;
82744;SDS011;72484;50.004;14.356;2024-01-30T15:20:19;34.60;;;23.80;;
82744;SDS011;72484;50.004;14.356;2024-01-30T15:23:56;32.80;;;23.50;;
82744;SDS011;72484;50.004;14.356;2024-01-30T15:27:34;32.90;;;23.30;;
82744;SDS011;72484;50.004;14.356;2024-01-30T15:31:12;33.20;;;23.30;;
82744;SDS011;72484;50.004;14.356;2024-01-30T15:34:32;34.40;;;23.40;;
82744;SDS011;72484;50.004;14.356;2024-01-30T15:38:47;33.40;;;23.40;;
82744;SDS011;72484;50.004;14.356;2024-01-30T15:42:25;33.50;;;23.50;;
82744;SDS011;72484;50.004;14.356;2024-01-30T15:46:03;35.50;;;24.90;;
82744;SDS011;72484;50.004;14.356;2024-01-30T15:49:23;36.30;;;25.40;;
82744;SDS011;72484;50.004;14.356;2024-01-30T15:53:39;36.20;;;24.60;;
82744;SDS011;72484;50.004;14.356;2024-01-30T15:57:16;34.30;;;25.10;;
82744;SDS011;72484;50.004;14.356;2024-01-30T16:00:54;35.00;;;24.90;;
82744;SDS011;72484;50.004;14.356;2024-01-30T16:04:32;41.60;;;28.70;;
82744;SDS011;72484;50.004;14.356;2024-01-30T16:07:52;36.10;;;24.60;;
82744;SDS011;72484;50.004;14.356;2024-01-30T16:11:49;36.80;;;25.30;;
82744;SDS011;72484;50.004;14.356;2024-01-30T16:15:47;36.60;;;25.60;;
82744;SDS011;72484;50.004;14.356;2024-01-30T16:19:45;35.30;;;26.10;;
82744;SDS011;72484;50.004;14.356;2024-01-30T16:23:44;39.10;;;27.60;;
82744;SDS011;72484;50.004;14.356;2024-01-30T16:27:43;36.10;;;25.20;;
82744;SDS011;72484;50.004;14.356;2024-01-30T16:31:59;38.00;;;25.80;;
82744;SDS011;72484;50.004;14.356;2024-01-30T16:35:18;33.10;;;24.90;;
82744;SDS011;72484;50.004;14.356;2024-01-30T16:39:35;36.70;;;25.40;;
82744;SDS011;72484;50.004;14.356;2024-01-30T16:42:54;35.20;;;25.40;;
82744;SDS011;72484;50.004;14.356;2024-01-30T16:46:53;34.20;;;24.70;;
82744;SDS011;72484;50.004;14.356;2024-01-30T16:50:51;35.60;;;25.40;;
82744;SDS011;72484;50.004;14.356;2024-01-30T16:54:49;34.90;;;25.00;;
82744;SDS011;72484;50.004;14.356;2024-01-30T16:59:05;35.20;;;24.10;;
82744;SDS011;72484;50.004;14.356;2024-01-30T17:02:25;37.40;;;26.20;;
82744;SDS011;72484;50.004;14.356;2024-01-30T17:06:23;34.90;;;24.40;;
82744;SDS011;72484;50.004;14.356;2024-01-30T17:10:39;37.80;;;26.20;;
82744;SDS011;72484;50.004;14.356;2024-01-30T17:13:59;39.40;;;27.80;;
82744;SDS011;72484;50.004;14.356;2024-01-30T17:18:15;41.40;;;27.00;;
82744;SDS011;72484;50.004;14.356;2024-01-30T17:21:53;41.70;;;29.90;;
82744;SDS011;72484;50.004;14.356;2024-01-30T17:25:30;39.90;;;28.00;;
82744;SDS011;72484;50.004;14.356;2024-01-30T17:29:08;41.50;;;30.30;;
82744;SDS011;72484;50.004;14.356;2024-01-30T17:32:28;41.70;;;28.90;;
82744;SDS011;72484;50.004;14.356;2024-01-30T17:36:44;42.00;;;30.00;;
82744;SDS011;72484;50.004;14.356;2024-01-30T17:40:04;40.80;;;29.30;;
82744;SDS011;72484;50.004;14.356;2024-01-30T17:44:22;41.10;;;29.60;;
82744;SDS011;72484;50.004;14.356;2024-01-30T17:47:41;41.50;;;29.70;;
82744;SDS011;72484;50.004;14.356;2024-01-30T17:51:40;42.30;;;29.50;;
82744;SDS011;72484;50.004;14.356;2024-01-30T17:55:56;41.30;;;29.20;;
82744;SDS011;72484;50.004;14.356;2024-01-30T17:59:16;41.40;;;28.80;;
82744;SDS011;72484;50.004;14.356;2024-01-30T18:03:34;41.60;;;28.70;;
82744;SDS011;72484;50.004;14.356;2024-01-30T18:07:12;39.60;;;28.50;;
82744;SDS011;72484;50.004;14.356;2024-01-30T18:10:50;41.20;;;28.50;;
82744;SDS011;72484;50.004;14.356;2024-01-30T18:14:10;42.20;;;28.60;;
82744;SDS011;72484;50.004;14.356;2024-01-30T18:18:26;41.50;;;29.00;;
82744;SDS011;72484;50.004;14.356;2024-01-30T18:22:03;40.60;;;28.40;;
82744;SDS011;72484;50.004;14.356;2024-01-30T18:25:23;45.50;;;31.90;;
82744;SDS011;72484;50.004;14.356;2024-01-30T18:29:39;47.60;;;33.30;;
82744;SDS011;72484;50.004;14.356;2024-01-30T18:33:17;46.10;;;32.60;;
82744;SDS011;72484;50.004;14.356;2024-01-30T18:36:54;43.40;;;31.70;;
82744;SDS011;72484;50.004;14.356;2024-01-30T18:40:14;43.50;;;30.40;;
82744;SDS011;72484;50.004;14.356;2024-01-30T18:44:31;43.70;;;30.60;;
82744;SDS011;72484;50.004;14.356;2024-01-30T18:47:50;45.00;;;31.30;;
82744;SDS011;72484;50.004;14.356;2024-01-30T18:52:07;44.70;;;31.80;;
82744;SDS011;72484;50.004;14.356;2024-01-30T18:55:45;43.80;;;30.80;;
82744;SDS011;72484;50.004;14.356;2024-01-30T18:59:04;44.40;;;30.80;;
82744;SDS011;72484;50.004;14.356;2024-01-30T19:03:20;45.60;;;31.20;;
82744;SDS011;72484;50.004;14.356;2024-01-30T19:06:40;44.50;;;31.50;;
82744;SDS011;72484;50.004;14.356;2024-01-30T19:10:56;44.80;;;30.10;;
82744;SDS011;72484;50.004;14.356;2024-01-30T19:14:16;46.10;;;31.50;;
82744;SDS011;72484;50.004;14.356;2024-01-30T19:18:14;46.20;;;31.40;;
82744;SDS011;72484;50.004;14.356;2024-01-30T19:22:30;43.90;;;31.90;;
82744;SDS011;72484;50.004;14.356;2024-01-30T19:26:08;46.00;;;31.50;;
82744;SDS011;72484;50.004;14.356;2024-01-30T19:29:46;43.50;;;30.60;;
82744;SDS011;72484;50.004;14.356;2024-01-30T19:33:06;45.70;;;31.60;;
82744;SDS011;72484;50.004;14.356;2024-01-30T19:37:22;44.70;;;30.80;;
82744;SDS011;72484;50.004;14.356;2024-01-30T19:41:00;44.40;;;32.40;;
82744;SDS011;72484;50.004;14.356;2024-01-30T19:44:37;48.40;;;33.40;;
82744;SDS011;72484;50.004;14.356;2024-01-30T19:47:57;56.50;;;38.20;;
82744;SDS011;72484;50.004;14.356;2024-01-30T19:51:55;56.90;;;42.20;;
82744;SDS011;72484;50.004;14.356;2024-01-30T19:56:16;47.10;;;33.60;;
82744;SDS011;72484;50.004;14.356;2024-01-30T19:59:35;46.70;;;32.10;;
82744;SDS011;72484;50.004;14.356;2024-01-30T20:03:34;49.80;;;34.00;;
82744;SDS011;72484;50.004;14.356;2024-01-30T20:07:32;53.70;;;37.20;;
82744;SDS011;72484;50.004;14.356;2024-01-30T20:11:30;56.70;;;38.40;;
82744;SDS011;72484;50.004;14.356;2024-01-30T20:15:28;72.00;;;52.00;;
82744;SDS011;72484;50.004;14.356;2024-01-30T20:19:44;64.10;;;45.10;;
82744;SDS011;72484;50.004;14.356;2024-01-30T20:23:04;60.50;;;42.20;;
82744;SDS011;72484;50.004;14.356;2024-01-30T20:27:02;58.40;;;40.80;;
82744;SDS011;72484;50.004;14.356;2024-01-30T20:31:19;72.20;;;48.60;;
82744;SDS011;72484;50.004;14.356;2024-01-30T20:34:39;64.40;;;43.30;;
82744;SDS011;72484;50.004;14.356;2024-01-30T20:38:55;60.00;;;41.50;;
82744;SDS011;72484;50.004;14.356;2024-01-30T20:42:33;60.10;;;41.50;;
82744;SDS011;72484;50.004;14.356;2024-01-30T20:46:11;55.60;;;39.70;;
82744;SDS011;72484;50.004;14.356;2024-01-30T20:49:31;60.10;;;39.90;;
82744;SDS011;72484;50.004;14.356;2024-01-30T20:53:47;53.70;;;38.00;;
82744;SDS011;72484;50.004;14.356;2024-01-30T20:57:07;57.20;;;38.40;;
82744;SDS011;72484;50.004;14.356;2024-01-30T21:01:23;50.10;;;35.20;;
82744;SDS011;72484;50.004;14.356;2024-01-30T21:05:01;53.50;;;37.70;;
82744;SDS011;72484;50.004;14.356;2024-01-30T21:08:38;60.90;;;41.50;;
82744;SDS011;72484;50.004;14.356;2024-01-30T21:12:16;61.40;;;42.40;;
82744;SDS011;72484;50.004;14.356;2024-01-30T21:15:54;66.00;;;45.10;;
82744;SDS011;72484;50.004;14.356;2024-01-30T21:19:14;57.60;;;40.20;;
82744;SDS011;72484;50.004;14.356;2024-01-30T21:23:12;57.60;;;39.00;;
82744;SDS011;72484;50.004;14.356;2024-01-30T21:27:28;56.90;;;40.40;;
82744;SDS011;72484;50.004;14.356;2024-01-30T21:30:48;61.50;;;40.50;;
82744;SDS011;72484;50.004;14.356;2024-01-30T21:34:46;66.70;;;45.60;;
82744;SDS011;72484;50.004;14.356;2024-01-30T21:38:44;67.20;;;44.80;;
82744;SDS011;72484;50.004;14.356;2024-01-30T21:43:00;56.90;;;39.80;;
82744;SDS011;72484;50.004;14.356;2024-01-30T21:46:24;64.80;;;44.20;;